API RP 578 Certificate/Identification Card Log 2012
Class Date Name Company Certificate/ID No. ID Expire Date
1/30-31/2012 Andreas Wiek Belec Gmbh #10326 1/31/2015 
1/30-31/2012 Vinod Kumar S. International Inspection #10327 1/31/2015 
1/30-31/2012 Rajan P.V. International Inspection #10328 1/31/2015 
1/30-31/2012 Jinu K. Samuel Hillsbrough #10329 1/31/2015 
1/30-31/2012 Kiran Ganesh Pai Hillsbrough #10330 1/31/2015 
1/30-31/2012 Vimal Raj R. Hillsbrough #10331 1/31/2015 
1/30-31/2012 Manoj Kumar G. Hillsbrough #10332 1/31/2015 
1/30-31/2012 Danish Balouch Hillsbrough #10333 1/31/2015 
1/30-31/2012 Gilroy Lopes Mc Dermott M.E. Inc. #10334 1/31/2015 
1/30-31/2012 Mohammed Al Abri Occidental Oman #10335 1/31/2015 
1/30-31/2012 C.R. Rajkumar Madras Fertilizers Ltd., Chennai #10336 1/31/2015 
1/30-31/2012 Selvamurugan A. Madras Fertilizers Ltd., Chennai #10337 1/31/2015 
1/30-31/2012 Gokul M.V. Beta Inspection #10338 1/31/2015 
1/30-31/2012 Muddassir Ahmed Khan Hillsbrough #10339 1/31/2015 
1/30-31/2012 Thrishul Nandan B. Hillsbrough #10340 1/31/2015 
1/30-31/2012 Mohammed Sharib Tii Techno Testing Instrument Ltd #10341 1/31/2015 
1/30-31/2012 V. Kartik Tii Techno Testing Instrument Ltd #10342 1/31/2015 
1/30-31/2012 R. Gopalakrishnan Hillsbrough #10343 1/31/2015 
1/30-31/2012 S. Venkatesh Sievert Emirates Inspection, LLC. #10344 1/31/2015 
1/30-31/2012 Jayaraj PIH Services ME, Ltd. #10345 1/31/2015 
1/30-31/2012 Sujatha Bangalore Suresh Hillsbrough #10346 1/31/2015 
1/30-31/2012 Ram Prakash R. Hillsbrough #10347 1/31/2015 
2/15-16/2012 Jessie L. Rosier Turner Industries #10348 2/16/2015 
2/15-16/2012 Jarad Barr Turbo NDT Testing, Inc. #10349 2/16/2015 
2/15-16/2012 Hugo Barron Panalpina #10350 2/16/2015 
2/15-16/2012 David Martin CAN-USA #10351 2/16/2015 
2/15-16/2012 Aldo Santiago CAN-USA #10352 2/16/2015 
2/15-16/2012 Domonique Palomarez CAN-USA #10353 2/16/2015 
2/15-16/2012 Jerry Harrington Tech Corr #10354 2/16/2015 
2/15-16/2012 Ryan Finnerty Tech Corr #10355 2/16/2015 
4/18-19/2012  Imelda Hernandez MOGAS Industries #10356 4/19/2015
4/18-19/2012 Matthew Thomas FMC Technologies #10357 4/19/2015
4/18-19/2012 John Quiter FMC Technologies #10358 4/19/2015
4/18-19/2012 Tyler Sizemore Turbo NDT Testing, Inc. #10359 4/19/2015
4/18-19/2012 Lee Kien Acuren #10360 4/19/2015
4/18-19/2012 Malcolm Baker FMC Technologies #10361 4/19/2015
4/18-19/2012 John Bake FMC Technologies #10362 4/19/2015
6/20-21/2012 Trevor Grover ITT Goulds Pumps #10363 6/21/2015
6/20-21/2012 Xavier Garza FMC Technologies #10364 6/21/2015
6/20-21/2012 Lee W. Jordan PetroChem Inspections #10365 6/21/2015
6/20-21/2012 Steven Stewart Acuren #10366 6/21/2015
6/20-21/2012 Aaron Fleming Acuren #10367 6/21/2015
6/20-21/2012 Allen Haynie Acuren #10368 6/21/2015
7/10-11/2012 Ehigie Ehiemua Oracle, Ltd. Nigeria #10369 7/11/2015
7/10-11/2012 Adesh Ramlogan Professional Inspection Services #10370 7/11/2015
7/10-11/2012 Aaron Shah Trinidad Inspection Services #10371 7/11/2015
7/10-11/2012 Imran Khan Neal & Massy Woodgroup #10372 7/11/2015
7/10-11/2012 Videsh Basdeo Non Destructive Testers Ltd. #10373 7/11/2015
7/10-11/2012 Wazim Abdool Dumore Enterprises Ltd. #10374 7/11/2015
7/10-11/2012 Anthony Radhaney Dumore Enterprises Ltd. #10375 7/11/2015
7/10-11/2012 Phillip Sankar Instruplant Ltd. #10376 7/11/2015
7/10-11/2012 Daren Rambaroop Neal & Massy Woodgroup #10377 7/11/2015
7/10-11/2012 Henry Babwah Caribbean Fasteners #10378 7/11/2015
7/30-31/2012 Arugba William Onoriode Oracle, Ltd. Nigeria #10379 7/31/2015
7/30-31/2012 Bhaskar Palla Vijaya Brent Ford Engineering / Chevron #10380 7/31/2015
7/30-31/2012 Aghahowa Williams O. Chevron Nigeria Ltd. #10381 7/31/2015
7/30-31/2012  Ajose Gbenga Chevron Nigeria Ltd. #10382 7/31/2015
7/30-31/2012 Godwin Igiebor Chevron Nigeria Ltd. #10383 7/31/2015
7/30-31/2012  Nwaobi Anthony Chevron Nigeria Ltd. #10384 7/31/2015
7/30-31/2012 Ogunsanya Temidayo Chevron Nigeria Ltd. #10385 7/31/2015
7/30-31/2012 Osaigbovo Stephen Chevron Nigeria Ltd. #10386 7/31/2015
7/30-31/2012 Tenumah Clifford Astral #10387 7/31/2015
7/30-31/2012 Kelvin Harrison Intralog Nigeria Ltd. #10388 7/31/2015
7/30-31/2012 David Reynard Astral #10389 7/31/2015
7/30-31/2012 Mene Augustine Intralog Nigeria Ltd. #10390 7/31/2015
7/30-31/2012 Isaac Omatseyin PPI #10391 7/31/2015
7/30-31/2012 Habibu Sani GIL #10392 7/31/2015
7/30-31/2012 Okpara Chibuzo Astral #10393 7/31/2015
7/30-31/2012 Ndife Victor Astral #10394 7/31/2015
7/30-31/2012 Adigwe Christopher Chevron Nigeria Ltd. #10395 7/31/2015
7/30-31/2012 Ibinabo Horsfall Oracle, Ltd. Nigeria #10396 7/31/2015
7/30-31/2012 Temple Njoku Chevron Nigeria Ltd. #10397 7/31/2015
7/30-31/2012 Braimah Oshiomah Yakubu Oracle, Ltd. Nigeria #10398 7/31/2015
7/30-31/2012 Attie Esterhuyse US Tech #10399 7/31/2015
7/30-31/2012 Ofulue Vivian N. Oracle, Ltd. Nigeria #10400 7/31/2015
8/14-15/2012 Roxy Marsh Western Refining #10401 8/15/2015
8/14-15/2012 George Martinez Western Refining #10402 8/15/2015
8/14-15/2012 Peterson Willie Western Refining #10403 8/15/2015
8/16-17/2012 David Mitchell Western Refining #10404 8/17/2015
8/16-17/2012 Jose' Sandoval Western Refining #10405 8/17/2015
8/16-17/2012 Ray Martinez Jr. Western Refining #10406 8/17/2015
8/16-17/2012 Michael Salas Western Refining #10407 8/17/2015
8/22-23/2012 Curtis Rowell FMC Technologies #10408 8/23/2015
8/22-23/2012 Hernan Leal FMC Technologies #10409 8/23/2015
8/22-23/2012 Robby Bonvillain Capitol Ultrasonics #10410 8/23/2015
8/22-23/2012 Gregg Ancona Capitol Ultrasonics #10411 8/23/2015
8/22-23/2012 Robert W. Phelan Acuren Inspection #10412 8/23/2015
8/22-23/2012 Michael J. Kyle Tricor Metals #10413 8/23/2015
8/22-23/2012 James E. Collvins Agrium #10414 8/23/2015
8/22-23/2012 Mitch Bussey Acuren Inspection #10415 8/23/2015
8/27-28/2012 Tommy Larsen FORCE Technology #10416 8/28/2015
8/27-28/2012 Erik Sogaard Larsen FORCE Technology #10417 8/28/2015
8/27-28/2012 Per Thorenfeldt FORCE Technology #10418 8/28/2015
8/27-28/2012 Ivan Oxenholt FORCE Technology #10419 8/28/2015
8/27-28/2012 Jan Berggreen FORCE Technology #10420 8/28/2015
8/27-28/2012 Keld Hald Christensen FORCE Technology #10421 8/28/2015
8/27-28/2012 Frank Togo Olsen FORCE Technology #10422 8/28/2015
8/27-28/2012 Per Christensen FORCE Technology #10423 8/28/2015
8/27-28/2012 Martin Post Andie Pedersen FORCE Technology #10424 8/28/2015
8/27-28/2012 Martin Gryl FORCE Technology #10425 8/28/2015
8/27-28/2012 Helle Lena Andersen FORCE Technology #10426 8/28/2015
8/27-28/2012 Henrik E. Andersen FORCE Technology #10427 8/28/2015
8/27-28/2012 Kristian Fjeldgaard FORCE Technology #10428 8/28/2015
8/27-28/2012 Simon Blauenfeld FORCE Technology #10429 8/28/2015
8/27-28/2012 Kim Polisensky FORCE Technology #10430 8/28/2015
8/27-28/2012 Kenneth Boman Holger Andreasen AB #10431 8/28/2015
8/27-28/2012 Gregor Diessel Belec Gmbh #10432 8/28/2015
9/27-28/2012 Danang Jarot Sukoo PT Tawada Graha #10433 9/28/2015
9/27-28/2012 Pudjajadi Witjaksono PT Radiant Utama Interinsco #10434 9/28/2015
9/27-28/2012 Gavin Soon Thermo Fisher Scientific #10435 9/28/2015
9/27-28/2012 Eko Hadi Prayitno PT Radiant Utama Interinsco #10436\ 9/28/2015
9/27-28/2012 Heru Widodo PT Pertamina EP #10437 9/28/2015
9/27-28/2012 Gde Krisna PT Solus Infiniti Prima #10438 9/28/2015
9/27-28/2012 Windu Jatmiko PT Tawada Graha #10439 9/28/2015
9/27-28/2012 Teddy Leo PT Dihen Bersama #10440 9/28/2015
9/27-28/2012 Wiwin Farudi PT Pertamina EP #10441 9/28/2015
10/17-18/2012 John Hester Columbus Castings #10442 10/18/2015
10/17-18/2012 Joel Robillard Swift #10443 10/18/2015
10/17-18/2012 Robert Smith BP #10444 10/18/2015
10/17-18/2012 Sean Durkin Fluor #10445 10/18/2015
10/17-18/2012 David Seay BP #10446 10/18/2015
10/17-18/2012 Thomas Hamilton Fluor #10447 10/18/2015
10/17-18/2012 William Darby Swift #10448 10/18/2015
10/17-18/2012 Lane Dorn Swift #10449 10/18/2015
10/17-18/2012 Keith Nixon BMW Constructors #10450 10/18/2015
10/17-18/2012 Chris Youell BMW Constructors #10451 10/18/2015
10/17-18/2012 Thomas Smith BMW Constructors #10452 10/18/2015
10/17-18/2012 Michael Martino Acuren #10453 10/18/2015
10/17-18/2012 David E. White Acuren #10454 10/18/2015
10/17-18/2012 Teddy G. Stone MC Industrial #10455 10/18/2015
10/17-18/2012 Kenneth S. Roach AMS #10456 10/18/2015
10/17-18/2012 Paul Stout Pipefitters L.U.597 #10457 10/18/2015
10/17-18/2012 Art Bustos Calumet Testing Services #10458 10/18/2015
10/17-18/2012 Mike Festa BP #10459 10/18/2015
10/17-18/2012 Tony Osborn Alpha Solutions, Inc. #10460 10/18/2015
10/17-18/2012 Matt Kondrat Calumet Testing Services #10461 10/18/2015
10/17-18/2012 Brian Haynes Calumet Testing Services #10462 10/18/2015
10/24-25/2012 Joseph Dominguez CAN-USA #10463 10/25/2015
10/24-25/2012 Rafael Silva CAN-USA #10464 10/25/2015
10/24-25/2012 Ricky Adams Tricor Metals #10465 10/25/2015
10/24-25/2012 Scott Woodard FMC Technologies #10466 10/25/2015
10/24-25/2012 James Hotard Team #10467 10/25/2015
10/24-25/2012 Edgar Duran Tech Corr #10468 10/25/2015
10/24-25/2012 Sean Perkins PetroChem Inspections #10469 10/25/2015
10/24-25/2012 Jeff Meadows PetroChem Inspections #10470 10/25/2015
12/19-20/2012 Hattan Al-Talyoni Aramco #10471 12/20/2015
12/19-20/2012 Melvin Becks FMC Technologies #10472 12/20/2015
         
Instructor Name: Don Mears
Date(s):  1/30-31/2012, 2/15-16/2012, 4/18-19/2012, 6/20-21/2012, 7/10-11/2012, 7/30-31/2012, 8/27-28/2012, 9/27-28/2012, 10/17-18/2012, 10/24-25/2012, 12/19-20/2012.
 last update: 05-Aug-2012